Time;durP1;ratioP1;P1;durP2;ratioP2;P2;SDS_P1;SDS_P2;PMS_P1;PMS_P2;Temp;Humidity;BMP_temperature;BMP_pressure;BME280_temperature;BME280_humidity;BME280_pressure;Samples;Min_cycle;Max_cycle;Signal;HPM_P1;HPM_P2
2022/05/01 00:01:30;;;;;;;7.50;6.90;;;;;;;21.99;39.25;95432.22;6149868;28;103528;-56
2022/05/01 00:04:32;;;;;;;8.40;7.80;;;;;;;21.97;39.09;95446.91;6154261;28;104754;-58
2022/05/01 00:07:34;;;;;;;7.70;7.10;;;;;;;21.96;39.34;95443.47;6136847;28;104722;-58
2022/05/01 00:10:36;;;;;;;8.10;7.50;;;;;;;21.98;39.18;95453.81;6118079;28;103788;-56
2022/05/01 00:13:58;;;;;;;7.33;6.73;;;;;;;21.97;39.25;95452.25;6100530;28;106467;-57
2022/05/01 00:17:01;;;;;;;7.83;7.33;;;;;;;21.97;39.58;95442.38;6121397;28;104748;-58
2022/05/01 00:20:04;;;;;;;8.17;7.50;;;;;;;21.95;39.05;95433.09;6136066;28;103730;-58
2022/05/01 00:23:06;;;;;;;7.60;7.00;;;;;;;21.94;39.12;95434.19;6130631;28;104985;-57
2022/05/01 00:26:08;;;;;;;7.67;7.03;;;;;;;21.95;39.12;95427.78;6132209;28;104969;-56
2022/05/01 00:29:10;;;;;;;7.53;6.93;;;;;;;21.94;38.97;95419.00;6157092;28;104815;-57
2022/05/01 00:32:12;;;;;;;8.73;8.03;;;;;;;21.92;38.84;95428.38;6135721;28;103908;-56
2022/05/01 00:38:35;;;;;;;8.00;7.43;;;;;;;21.93;38.87;95427.28;6162496;28;103765;-57
2022/05/01 00:41:39;;;;;;;8.17;7.50;;;;;;;21.91;39.08;95418.78;6163385;28;103740;-54
2022/05/01 00:44:41;;;;;;;8.30;7.70;;;;;;;21.91;38.77;95422.25;6146671;28;104414;-57
2022/05/01 00:47:43;;;;;;;8.90;8.20;;;;;;;21.90;38.97;95417.22;6153963;28;104937;-57
2022/05/01 00:50:45;;;;;;;8.20;7.57;;;;;;;21.89;39.33;95412.97;6141490;28;103569;-55
2022/05/01 00:53:50;;;;;;;8.63;7.93;;;;;;;21.89;39.34;95423.63;6139696;28;103515;-57
2022/05/01 00:56:54;;;;;;;7.90;7.30;;;;;;;21.88;38.86;95425.50;6145035;28;105375;-57
2022/05/01 00:59:56;;;;;;;8.60;7.90;;;;;;;21.88;39.16;95414.84;6158503;28;103922;-57
2022/05/01 01:02:58;;;;;;;7.50;6.90;;;;;;;21.86;38.82;95418.91;6164152;28;103912;-58
2022/05/01 01:06:00;;;;;;;8.40;7.70;;;;;;;21.82;39.30;95413.34;6163585;28;103601;-57
2022/05/01 01:09:03;;;;;;;8.50;7.90;;;;;;;21.88;39.04;95416.72;6146441;28;105021;-57
2022/05/01 01:15:39;;;;;;;7.53;7.03;;;;;;;21.84;38.77;95413.84;6139713;28;104726;-58
2022/05/01 01:18:41;;;;;;;7.73;7.17;;;;;;;21.83;38.88;95414.91;6139633;28;103755;-52
2022/05/01 01:21:42;;;;;;;7.83;7.23;;;;;;;21.80;38.96;95404.81;6136165;28;103854;-52
2022/05/01 01:24:44;;;;;;;7.67;7.00;;;;;;;21.83;38.69;95416.78;6164082;28;105042;-51
2022/05/01 01:27:47;;;;;;;7.83;7.23;;;;;;;21.85;39.15;95406.66;6148426;28;103965;-52
2022/05/01 01:34:15;;;;;;;7.90;7.30;;;;;;;21.82;39.06;95402.69;6143432;28;103438;-52
2022/05/01 01:37:18;;;;;;;8.17;7.57;;;;;;;21.81;39.27;95407.19;6160007;28;104856;-52
2022/05/01 01:40:24;;;;;;;7.83;7.13;;;;;;;21.81;38.98;95406.41;6163591;28;103690;-51
2022/05/01 01:43:28;;;;;;;7.63;7.13;;;;;;;21.79;38.75;95408.56;6150918;28;103556;-52
2022/05/01 01:46:32;;;;;;;7.93;7.37;;;;;;;21.79;38.62;95409.38;6151571;28;104214;-53
2022/05/01 01:49:34;;;;;;;7.57;7.07;;;;;;;21.76;38.80;95401.19;6159090;28;103764;-52
2022/05/01 01:52:35;;;;;;;7.47;6.87;;;;;;;21.79;38.87;95403.25;6144211;28;104840;-52
2022/05/01 01:55:38;;;;;;;6.70;6.20;;;;;;;21.77;38.79;95395.56;6132169;28;103676;-52
2022/05/01 01:58:41;;;;;;;7.10;6.60;;;;;;;21.76;38.89;95393.97;6162844;28;104747;-52
2022/05/01 02:01:43;;;;;;;8.07;7.37;;;;;;;21.79;38.54;95397.91;6152956;28;104900;-52
2022/05/01 02:04:45;;;;;;;7.00;6.50;;;;;;;21.77;38.72;95394.78;6128479;28;104717;-52
2022/05/01 02:07:47;;;;;;;7.47;6.93;;;;;;;21.76;38.74;95398.53;6133464;28;104702;-52
2022/05/01 02:10:48;;;;;;;7.57;6.97;;;;;;;21.75;39.10;95400.41;6138614;28;103862;-51
2022/05/01 02:13:50;;;;;;;7.20;6.63;;;;;;;21.67;39.10;95385.06;6137576;28;103969;-53
2022/05/01 02:16:55;;;;;;;7.00;6.50;;;;;;;21.75;38.62;95395.06;6153093;28;104187;-52
2022/05/01 02:19:56;;;;;;;6.50;6.03;;;;;;;21.75;38.81;95391.63;6162122;28;104879;-52
2022/05/01 02:22:58;;;;;;;7.07;6.53;;;;;;;21.74;38.88;95387.38;6158777;28;104357;-52
2022/05/01 02:26:00;;;;;;;7.40;6.80;;;;;;;21.73;39.10;95389.25;6136774;28;104049;-52
2022/05/01 02:29:03;;;;;;;7.07;6.57;;;;;;;21.73;39.00;95389.25;6128264;28;105038;-52
2022/05/01 02:32:05;;;;;;;7.10;6.60;;;;;;;21.71;38.85;95379.97;6138592;28;103922;-51
2022/05/01 02:35:08;;;;;;;6.70;6.20;;;;;;;21.71;38.75;95385.31;6153372;28;103952;-51
2022/05/01 02:38:11;;;;;;;6.80;6.30;;;;;;;21.69;38.91;95388.25;6114711;28;104630;-53
2022/05/01 02:41:13;;;;;;;7.07;6.57;;;;;;;21.72;39.05;95384.22;6103494;28;104130;-51
2022/05/01 02:44:15;;;;;;;6.70;6.20;;;;;;;21.72;38.91;95386.88;6125589;28;104107;-52
2022/05/01 02:47:17;;;;;;;6.37;5.97;;;;;;;21.71;39.21;95379.97;6136307;28;103482;-52
2022/05/01 02:50:19;;;;;;;6.70;6.10;;;;;;;21.68;38.89;95385.91;6156514;28;105122;-52
2022/05/01 02:53:20;;;;;;;6.70;6.20;;;;;;;21.68;39.12;95375.25;6113904;28;103315;-52
2022/05/01 02:56:22;;;;;;;6.43;5.83;;;;;;;21.70;39.03;95375.72;6135961;28;104865;-53
2022/05/01 02:59:24;;;;;;;7.27;6.60;;;;;;;21.70;38.76;95373.06;6141030;28;103665;-52
2022/05/01 03:02:25;;;;;;;6.70;6.10;;;;;;;21.69;38.99;95372.28;6151478;28;103907;-53
2022/05/01 03:05:28;;;;;;;6.87;6.37;;;;;;;21.71;38.92;95380.75;6138308;28;103761;-52
2022/05/01 03:08:29;;;;;;;6.70;6.20;;;;;;;21.70;38.79;95379.19;6137422;28;103721;-51
2022/05/01 03:11:32;;;;;;;6.77;6.27;;;;;;;21.70;38.78;95383.72;6138619;28;103923;-52
2022/05/01 03:14:33;;;;;;;7.00;6.40;;;;;;;21.67;38.92;95369.09;6146020;28;105689;-52
2022/05/01 03:24:18;;;;;;;6.77;6.27;;;;;;;21.69;39.26;95382.16;6139338;28;104511;-52
2022/05/01 03:27:19;;;;;;;7.07;6.57;;;;;;;21.66;38.61;95391.50;6156142;28;105324;-51
2022/05/01 03:30:21;;;;;;;7.30;6.70;;;;;;;21.66;38.97;95393.38;6158428;28;104619;-52
2022/05/01 03:33:25;;;;;;;6.83;6.33;;;;;;;21.65;38.81;95402.44;6135900;28;103867;-52
2022/05/01 03:36:26;;;;;;;7.13;6.53;;;;;;;21.63;38.59;95405.41;6120016;28;104766;-66
2022/05/01 03:39:28;;;;;;;7.20;6.60;;;;;;;21.62;39.18;95393.16;6161457;28;104829;-52
2022/05/01 03:42:30;;;;;;;7.90;7.20;;;;;;;21.65;38.73;95405.09;6140301;28;104698;-52
2022/05/01 03:45:32;;;;;;;6.70;6.20;;;;;;;21.64;38.78;95409.63;6135597;28;103946;-52
2022/05/01 03:48:34;;;;;;;7.83;7.13;;;;;;;21.65;38.90;95408.56;6109903;28;103675;-52
2022/05/01 03:51:36;;;;;;;7.60;6.90;;;;;;;21.64;38.68;95408.84;6123117;28;104710;-52
2022/05/01 03:54:38;;;;;;;7.40;6.90;;;;;;;21.63;39.01;95416.06;6146317;28;105041;-52
2022/05/01 03:57:40;;;;;;;6.97;6.37;;;;;;;21.63;39.17;95415.25;6159010;28;104895;-52
2022/05/01 04:00:47;;;;;;;7.63;7.03;;;;;;;21.62;38.87;95414.47;6145862;28;104258;-52
2022/05/01 04:03:49;;;;;;;7.73;7.13;;;;;;;21.64;38.42;95419.50;6136553;28;103762;-52
2022/05/01 04:06:57;;;;;;;7.03;6.53;;;;;;;21.62;38.69;95417.13;6135781;28;104922;-52
2022/05/01 04:09:58;;;;;;;8.47;7.77;;;;;;;21.56;38.82;95412.19;6151361;28;105005;-59
2022/05/01 04:13:00;;;;;;;8.70;7.90;;;;;;;21.61;38.89;95423.53;6139569;28;104860;-52
2022/05/01 04:16:02;;;;;;;7.70;7.10;;;;;;;21.61;38.65;95436.88;6134257;28;103609;-52
2022/05/01 04:19:04;;;;;;;8.17;7.47;;;;;;;21.62;39.02;95433.13;6134066;28;103373;-52
2022/05/01 04:22:06;;;;;;;7.53;7.00;;;;;;;21.63;38.95;95437.34;6125386;28;103847;-52
2022/05/01 04:25:15;;;;;;;7.77;7.17;;;;;;;21.64;38.64;95438.16;6147356;28;103585;-52
2022/05/01 04:28:17;;;;;;;8.50;7.80;;;;;;;21.63;38.35;95432.03;6147983;28;104923;-52
2022/05/01 04:31:19;;;;;;;8.23;7.63;;;;;;;21.63;38.78;95425.91;6159168;28;103986;-52
2022/05/01 04:34:21;;;;;;;8.30;7.60;;;;;;;21.63;38.82;95432.03;6136227;28;104853;-52
2022/05/01 04:37:22;;;;;;;7.83;7.23;;;;;;;21.59;38.66;95424.94;6121891;28;103375;-52
2022/05/01 04:40:24;;;;;;;7.07;6.57;;;;;;;21.60;38.64;95423.84;6158943;28;104853;-52
2022/05/01 04:43:29;;;;;;;7.43;6.83;;;;;;;21.62;39.02;95429.66;6154072;28;104061;-53
2022/05/01 04:46:30;;;;;;;8.27;7.57;;;;;;;21.61;38.45;95417.44;6124994;28;103689;-53
2022/05/01 04:49:32;;;;;;;7.77;7.17;;;;;;;21.63;38.75;95420.59;6139828;28;104790;-52
2022/05/01 04:52:37;;;;;;;8.23;7.50;;;;;;;21.62;38.37;95422.47;6141316;28;103713;-52
2022/05/01 04:55:40;;;;;;;7.60;7.00;;;;;;;21.64;38.92;95416.84;6145621;28;104188;-53
2022/05/01 04:58:41;;;;;;;7.37;6.83;;;;;;;21.64;38.87;95427.50;6158453;28;104019;-52
2022/05/01 05:01:43;;;;;;;7.73;7.13;;;;;;;21.65;38.88;95434.41;6143969;28;103801;-52
2022/05/01 05:04:45;;;;;;;8.20;7.60;;;;;;;21.65;38.43;95431.72;6134245;28;103783;-51
2022/05/01 05:07:48;;;;;;;11.73;7.63;;;;;;;21.58;39.03;95426.81;6135510;28;103625;-53
2022/05/01 05:10:50;;;;;;;9.73;8.73;;;;;;;21.26;39.38;95434.78;6152701;28;103895;-53
2022/05/01 05:13:57;;;;;;;11.30;10.20;;;;;;;20.52;40.21;95437.16;6154997;28;103697;-53
2022/05/01 05:17:01;;;;;;;11.83;8.90;;;;;;;20.88;39.72;95448.88;6159190;28;104031;-54
2022/05/01 05:20:04;;;;;;;9.17;8.47;;;;;;;21.11;39.37;95443.78;6134662;28;104224;-53
2022/05/01 05:23:06;;;;;;;8.60;8.00;;;;;;;21.19;39.29;95448.47;6156860;28;104957;-53
2022/05/01 05:26:08;;;;;;;10.40;9.13;;;;;;;21.16;39.23;95444.50;6124646;28;104832;-54
2022/05/01 05:29:09;;;;;;;9.07;8.27;;;;;;;21.28;38.95;95446.72;6143212;28;104816;-53
2022/05/01 05:32:11;;;;;;;8.33;7.63;;;;;;;21.34;39.44;95444.75;6134800;28;103533;-54
2022/05/01 05:35:13;;;;;;;9.37;8.53;;;;;;;21.40;39.39;95440.94;6138947;28;104875;-53
2022/05/01 05:38:14;;;;;;;9.97;9.23;;;;;;;21.23;39.94;95436.16;6139273;28;103840;-53
2022/05/01 05:41:16;;;;;;;9.83;8.93;;;;;;;21.20;40.09;95439.41;6141903;28;103789;-54
2022/05/01 05:44:18;;;;;;;9.53;8.77;;;;;;;21.36;39.60;95429.31;6140932;28;106108;-53
2022/05/01 05:47:20;;;;;;;8.40;7.70;;;;;;;21.47;39.03;95430.72;6138122;28;103984;-54
2022/05/01 05:50:21;;;;;;;10.20;9.40;;;;;;;20.98;39.99;95437.28;6138572;28;104485;-53
2022/05/01 05:53:23;;;;;;;8.90;8.17;;;;;;;20.92;40.50;95439.25;6152335;28;104054;-53
2022/05/01 05:56:25;;;;;;;9.80;8.80;;;;;;;21.19;40.16;95443.94;6141475;28;104934;-53
2022/05/01 05:59:27;;;;;;;10.53;9.60;;;;;;;21.43;40.10;95449.16;6132654;28;104020;-54
2022/05/01 06:02:28;;;;;;;11.67;10.80;;;;;;;20.78;41.09;95446.34;6138930;28;104298;-54
2022/05/01 06:05:32;;;;;;;10.20;9.50;;;;;;;20.30;41.81;95440.31;6118323;28;104410;-57
2022/05/01 06:08:35;;;;;;;8.73;8.03;;;;;;;20.96;40.69;95454.63;6134301;28;104797;-53
2022/05/01 06:11:37;;;;;;;11.87;8.50;;;;;;;21.13;40.34;95445.09;6137792;28;103927;-53
2022/05/01 06:14:39;;;;;;;8.97;8.10;;;;;;;21.26;39.83;95448.88;6131608;28;103660;-54
2022/05/01 06:17:41;;;;;;;9.60;8.50;;;;;;;20.66;40.71;95453.16;6133340;28;103849;-53
2022/05/01 06:20:43;;;;;;;8.70;7.27;;;;;;;21.15;40.02;95452.78;6139452;28;103975;-53
2022/05/01 06:23:48;;;;;;;8.87;6.90;;;;;;;21.50;39.72;95449.53;6143138;28;103808;-51
2022/05/01 06:26:49;;;;;;;12.53;6.00;;;;;;;21.82;41.16;95450.63;6144587;28;104397;-52
2022/05/01 06:29:51;;;;;;;8.60;6.80;;;;;;;21.97;40.79;95453.03;6148514;28;105082;-51
2022/05/01 06:32:53;;;;;;;9.60;6.17;;;;;;;22.01;40.20;95454.03;6153849;28;104667;-51
2022/05/01 06:35:55;;;;;;;19.03;7.87;;;;;;;22.00;40.93;95455.09;6143017;28;105426;-51
2022/05/01 06:38:59;;;;;;;11.67;7.90;;;;;;;22.01;40.45;95451.38;6127199;28;104892;-51
2022/05/01 06:42:00;;;;;;;20.30;8.80;;;;;;;22.06;41.26;95461.94;6150336;28;103726;-52
2022/05/01 06:45:04;;;;;;;12.90;7.83;;;;;;;22.07;41.01;95452.84;6138100;28;103725;-52
2022/05/01 06:48:07;;;;;;;19.43;8.40;;;;;;;22.18;41.85;95455.31;6137317;28;104971;-51
2022/05/01 06:51:09;;;;;;;15.20;8.00;;;;;;;22.20;41.53;95453.16;6127744;28;105304;-51
2022/05/01 06:54:11;;;;;;;11.03;9.50;;;;;;;22.22;41.44;95453.66;6137020;28;103896;-54
2022/05/01 06:57:13;;;;;;;14.40;9.33;;;;;;;22.23;41.81;95449.91;6156361;28;103589;-51
2022/05/01 07:00:15;;;;;;;23.23;9.50;;;;;;;22.27;40.95;95453.56;6137408;28;104601;-52
2022/05/01 07:03:17;;;;;;;11.17;8.37;;;;;;;22.31;41.22;95449.19;6141373;28;104001;-53
2022/05/01 07:06:19;;;;;;;11.07;8.03;;;;;;;22.28;40.75;95447.13;6135377;28;104689;-50
2022/05/01 07:09:21;;;;;;;12.50;8.03;;;;;;;22.19;39.49;95447.03;6137196;28;103841;-51
2022/05/01 07:12:22;;;;;;;9.43;7.87;;;;;;;21.88;39.67;95452.16;6124825;28;104493;-50
2022/05/01 07:15:24;;;;;;;9.30;8.50;;;;;;;21.54;39.71;95439.13;6138013;28;104890;-52
2022/05/01 07:18:26;;;;;;;8.77;7.93;;;;;;;21.62;39.38;95442.97;6136676;28;103915;-51
2022/05/01 07:21:27;;;;;;;8.83;7.30;;;;;;;21.86;39.21;95435.66;6151792;28;104893;-52
2022/05/01 07:24:29;;;;;;;11.77;8.13;;;;;;;21.88;39.42;95444.16;6139867;28;104348;-51
2022/05/01 07:27:31;;;;;;;7.73;7.03;;;;;;;21.60;39.01;95443.28;6150672;28;103922;-51
2022/05/01 07:30:33;;;;;;;7.60;7.00;;;;;;;21.66;38.36;95431.44;6150504;28;103990;-51
2022/05/01 07:33:34;;;;;;;8.57;7.97;;;;;;;21.32;39.02;95437.06;6132749;28;103913;-52
2022/05/01 07:36:37;;;;;;;7.40;6.90;;;;;;;21.35;38.27;95436.50;6150583;28;104970;-51
2022/05/01 07:39:39;;;;;;;7.63;6.03;;;;;;;21.54;38.41;95436.47;6147375;28;104768;-50
2022/05/01 07:42:40;;;;;;;7.03;6.43;;;;;;;21.77;38.52;95435.50;6135420;28;104958;-51
2022/05/01 07:45:44;;;;;;;6.90;6.37;;;;;;;21.94;39.09;95436.84;6127192;28;104923;-51
2022/05/01 07:48:48;;;;;;;11.20;6.40;;;;;;;21.98;39.20;95443.16;6143646;28;104927;-51
2022/05/01 07:51:50;;;;;;;7.40;6.43;;;;;;;22.00;39.04;95425.78;6153199;28;104750;-50
2022/05/01 07:54:51;;;;;;;6.57;5.97;;;;;;;22.04;40.33;95434.78;6138522;28;103779;-52
2022/05/01 07:57:53;;;;;;;6.40;5.90;;;;;;;21.05;38.34;95427.13;6148093;28;105041;-51
2022/05/01 08:00:58;;;;;;;6.80;6.30;;;;;;;21.42;38.16;95434.25;6161300;28;103874;-50
2022/05/01 08:07:20;;;;;;;5.50;5.10;;;;;;;21.76;37.32;95425.94;6157186;28;103670;-51
2022/05/01 08:10:22;;;;;;;5.63;5.23;;;;;;;21.83;37.14;95430.91;6126390;28;103851;-50
2022/05/01 08:13:24;;;;;;;5.63;5.20;;;;;;;21.98;37.32;95424.50;6150145;28;104895;-52
2022/05/01 08:16:25;;;;;;;5.20;4.80;;;;;;;22.08;36.81;95421.66;6155349;28;103592;-51
2022/05/01 08:22:48;;;;;;;5.90;5.40;;;;;;;22.15;36.51;95418.59;6128784;28;103936;-52
2022/05/01 08:25:50;;;;;;;4.93;4.53;;;;;;;22.20;35.42;95408.63;6155478;28;105490;-52
2022/05/01 08:28:54;;;;;;;5.47;4.97;;;;;;;22.32;36.06;95410.78;6157327;28;103979;-50
2022/05/01 08:31:55;;;;;;;7.07;4.77;;;;;;;22.40;36.26;95412.75;6140844;28;105389;-52
2022/05/01 08:34:57;;;;;;;5.20;4.80;;;;;;;22.47;36.74;95405.13;6153130;28;103679;-50
2022/05/01 08:37:59;;;;;;;7.00;4.20;;;;;;;22.45;36.08;95399.31;6159099;28;103818;-52
2022/05/01 08:41:01;;;;;;;4.70;4.27;;;;;;;22.57;35.51;95404.97;6157783;28;103965;-54
2022/05/01 08:44:05;;;;;;;4.27;3.90;;;;;;;22.52;34.96;95394.38;6142623;28;103940;-52
2022/05/01 08:47:14;;;;;;;4.23;3.83;;;;;;;22.51;34.96;95392.78;6155461;28;104663;-52
2022/05/01 08:50:17;;;;;;;4.10;3.77;;;;;;;22.50;34.76;95391.19;6153783;28;103748;-51
2022/05/01 08:53:22;;;;;;;4.50;3.90;;;;;;;22.60;34.63;95401.69;6148739;28;105081;-51
2022/05/01 08:56:26;;;;;;;3.90;3.60;;;;;;;22.64;34.45;95386.66;6151396;28;104984;-51
2022/05/01 08:59:28;;;;;;;4.00;3.70;;;;;;;22.72;34.78;95389.72;6159724;28;105275;-51
2022/05/01 09:02:31;;;;;;;4.00;3.53;;;;;;;22.73;34.33;95375.28;6161867;28;104439;-53
2022/05/01 09:05:33;;;;;;;6.60;3.90;;;;;;;22.67;35.34;95383.38;6126685;28;104734;-52
2022/05/01 09:08:38;;;;;;;4.43;4.03;;;;;;;22.67;35.75;95379.94;6152925;28;104275;-52
2022/05/01 09:15:00;;;;;;;4.57;4.17;;;;;;;22.64;36.82;95375.19;6151005;28;104615;-53
2022/05/01 09:18:09;;;;;;;4.30;4.00;;;;;;;22.73;36.79;95373.41;6150343;28;103795;-52
2022/05/01 09:21:12;;;;;;;6.13;4.73;;;;;;;22.67;37.83;95367.38;6158876;28;104682;-52
2022/05/01 09:24:13;;;;;;;9.77;9.07;;;;;;;22.69;41.70;95361.78;6156687;28;103639;-51
2022/05/01 09:27:27;;;;;;;10.77;9.90;;;;;;;22.31;39.63;95371.88;6154455;28;105117;-52
2022/05/01 09:30:35;;;;;;;57.53;51.70;;;;;;;22.47;43.78;95351.00;6155104;28;104028;-52
2022/05/01 09:33:37;;;;;;;47.07;42.50;;;;;;;22.62;43.61;95362.16;6156614;28;103761;-53
2022/05/01 09:36:39;;;;;;;30.07;27.40;;;;;;;22.64;41.56;95353.88;6162827;28;104023;-51
2022/05/01 09:39:41;;;;;;;19.83;18.03;;;;;;;22.63;36.93;95350.41;6152135;28;103745;-53
2022/05/01 09:42:43;;;;;;;16.60;15.10;;;;;;;22.69;35.11;95333.22;6159613;28;103677;-51
2022/05/01 09:45:45;;;;;;;13.77;12.40;;;;;;;22.77;34.17;95331.69;6168990;28;104050;-53
2022/05/01 09:49:05;;;;;;;11.30;9.97;;;;;;;22.78;34.11;95335.16;6157951;28;103272;-51
2022/05/01 09:52:06;;;;;;;10.70;9.80;;;;;;;22.76;34.13;95316.78;6136011;28;104037;-51
2022/05/01 09:55:08;;;;;;;10.10;9.17;;;;;;;22.53;35.69;95325.84;6154324;28;104017;-52
2022/05/01 09:58:12;;;;;;;19.73;18.00;;;;;;;22.64;39.99;95319.97;6160785;28;104983;-50
2022/05/01 10:01:16;;;;;;;22.07;20.63;;;;;;;22.75;37.45;95322.41;6159867;28;105311;-52
2022/05/01 10:04:21;;;;;;;60.37;56.07;;;;;;;22.83;39.57;95311.00;6139132;28;104829;-51
2022/05/01 10:07:25;;;;;;;82.77;76.83;;;;;;;22.85;40.52;95328.31;6161069;28;104689;-50
2022/05/01 10:10:26;;;;;;;58.37;54.17;;;;;;;22.82;38.43;95312.88;6160138;28;104119;-50
2022/05/01 10:13:29;;;;;;;36.23;33.53;;;;;;;22.84;35.56;95299.22;6149198;28;104723;-52
2022/05/01 10:16:40;;;;;;;30.77;28.40;;;;;;;22.85;35.48;95290.13;6155649;28;104748;-51
2022/05/01 10:19:42;;;;;;;25.30;23.53;;;;;;;22.84;35.89;95286.69;6158399;28;103865;-51
2022/05/01 10:22:45;;;;;;;24.40;22.20;;;;;;;22.88;35.58;95297.56;6159232;28;104015;-52
2022/05/01 10:25:51;;;;;;;21.70;20.00;;;;;;;22.87;35.66;95294.09;6144196;28;103843;-50
2022/05/01 10:29:11;;;;;;;18.53;17.20;;;;;;;22.78;35.67;95282.56;6152519;28;103972;-50
2022/05/01 10:32:50;;;;;;;18.20;16.90;;;;;;;22.70;35.96;95275.31;6161254;28;104380;-50
2022/05/01 10:36:19;;;;;;;15.63;13.40;;;;;;;22.70;35.93;95272.66;6106731;28;104870;-50
2022/05/01 10:39:23;;;;;;;14.30;13.30;;;;;;;22.61;36.87;95280.56;6156433;28;103949;-52
2022/05/01 10:42:36;;;;;;;17.97;16.47;;;;;;;22.62;38.51;95266.13;6136063;28;105087;-52
2022/05/01 10:45:42;;;;;;;15.47;14.27;;;;;;;22.56;38.46;95262.00;6152574;28;103725;-56
2022/05/01 10:48:44;;;;;;;15.47;14.27;;;;;;;22.56;39.48;95267.34;6149542;28;103722;-51
2022/05/01 10:51:48;;;;;;;14.37;13.27;;;;;;;22.48;39.82;95257.38;6160762;28;103774;-51
2022/05/01 10:54:50;;;;;;;13.40;12.30;;;;;;;22.52;39.83;95255.69;6151350;28;104682;-52
2022/05/01 10:58:26;;;;;;;11.77;10.77;;;;;;;22.52;40.00;95246.91;6159630;28;103939;-51
2022/05/01 11:01:53;;;;;;;10.23;9.53;;;;;;;22.52;39.94;95241.59;6153161;28;103738;-54
2022/05/01 11:04:56;;;;;;;9.20;8.50;;;;;;;22.49;39.97;95229.63;6147347;28;104809;-52
2022/05/01 11:08:00;;;;;;;9.30;8.57;;;;;;;22.47;40.08;95231.81;6159406;28;103739;-50
2022/05/01 11:11:05;;;;;;;9.20;8.30;;;;;;;22.42;40.27;95227.38;6149578;28;103643;-53
2022/05/01 11:14:06;;;;;;;8.77;7.97;;;;;;;22.44;39.84;95226.28;6151814;28;103782;-51
2022/05/01 11:17:08;;;;;;;8.93;8.00;;;;;;;22.34;36.26;95232.63;6159322;28;103743;-51
2022/05/01 11:20:19;;;;;;;7.97;7.27;;;;;;;22.28;38.98;95231.19;6162006;28;104713;-53
2022/05/01 11:23:33;;;;;;;7.30;6.80;;;;;;;22.32;39.75;95214.28;6140866;28;105298;-52
2022/05/01 11:26:34;;;;;;;5.47;4.97;;;;;;;22.16;37.40;95222.94;6156349;28;104783;-50
2022/05/01 11:29:37;;;;;;;4.50;3.90;;;;;;;22.16;36.08;95221.06;6158379;28;103709;-52
2022/05/01 11:32:42;;;;;;;5.80;5.40;;;;;;;22.27;37.72;95224.28;6155186;28;104650;-52
2022/05/01 11:35:56;;;;;;;5.90;3.90;;;;;;;22.32;36.93;95213.50;6130689;28;104571;-51
2022/05/01 11:38:58;;;;;;;4.83;4.40;;;;;;;22.33;36.30;95213.19;6138711;28;104932;-51
2022/05/01 11:42:00;;;;;;;4.37;3.97;;;;;;;22.35;36.47;95212.91;6160584;28;104260;-51
2022/05/01 11:45:04;;;;;;;4.60;4.30;;;;;;;22.31;36.27;95206.59;6139605;28;104102;-51
2022/05/01 11:48:13;;;;;;;3.37;3.17;;;;;;;22.33;36.41;95207.06;6159479;28;104009;-51
2022/05/01 11:51:17;;;;;;;3.57;3.27;;;;;;;22.30;35.95;95205.81;6161053;28;103805;-51
2022/05/01 11:54:22;;;;;;;3.90;3.50;;;;;;;22.33;35.98;95213.19;6154492;28;104779;-52
2022/05/01 12:04:22;;;;;;;3.67;3.47;;;;;;;22.30;35.72;95194.34;6140871;28;103933;-51
2022/05/01 12:07:24;;;;;;;3.60;3.20;;;;;;;22.31;35.47;95190.59;6147998;28;103584;-51
2022/05/01 12:10:26;;;;;;;3.10;2.90;;;;;;;22.20;34.96;95184.72;6157387;28;104998;-51
2022/05/01 12:13:28;;;;;;;3.13;2.90;;;;;;;22.26;35.43;95182.72;6154773;28;104977;-51
2022/05/01 12:16:30;;;;;;;3.23;3.03;;;;;;;22.26;34.98;95178.19;6159196;28;105166;-51
2022/05/01 12:19:37;;;;;;;3.30;3.10;;;;;;;22.28;34.81;95178.66;6125625;28;104788;-50
2022/05/01 12:22:39;;;;;;;3.30;3.10;;;;;;;22.27;34.46;95168.31;6145125;28;103672;-51
2022/05/01 12:25:41;;;;;;;3.43;2.87;;;;;;;22.29;34.36;95166.13;6133437;28;104926;-50
2022/05/01 12:28:43;;;;;;;3.07;2.87;;;;;;;22.30;34.88;95168.47;6145173;28;104996;-49
2022/05/01 12:32:14;;;;;;;4.07;2.90;;;;;;;22.33;35.07;95162.53;6147627;28;104931;-50
2022/05/01 12:35:16;;;;;;;2.87;2.70;;;;;;;22.34;35.53;95156.09;6153523;28;104707;-50
2022/05/01 12:38:19;;;;;;;3.10;2.80;;;;;;;22.36;35.38;95155.81;6143099;28;104971;-50
2022/05/01 12:45:09;;;;;;;3.10;2.90;;;;;;;22.35;35.50;95149.72;6153792;28;105649;-55
2022/05/01 12:48:13;;;;;;;2.83;2.63;;;;;;;22.37;36.13;95147.53;6161661;28;104650;-50
2022/05/01 12:51:15;;;;;;;3.00;2.80;;;;;;;22.36;35.88;95139.84;6158490;28;104752;-56
2022/05/01 12:54:19;;;;;;;3.20;2.17;;;;;;;22.37;36.12;95142.19;6143558;28;104422;-50
2022/05/01 12:57:31;;;;;;;2.77;2.60;;;;;;;22.33;36.13;95133.19;6149554;28;105203;-50
2022/05/01 13:00:39;;;;;;;3.10;2.90;;;;;;;22.37;36.03;95134.19;6153574;28;103087;-50
2022/05/01 13:03:41;;;;;;;2.70;2.60;;;;;;;22.38;36.75;95134.97;6140644;28;104799;-51
2022/05/01 13:06:42;;;;;;;3.93;2.97;;;;;;;22.38;36.65;95129.66;6155295;28;104796;-50
2022/05/01 13:09:51;;;;;;;2.77;2.63;;;;;;;22.37;36.66;95138.75;6158455;28;103702;-50
2022/05/01 13:12:57;;;;;;;2.80;2.60;;;;;;;22.37;37.10;95136.06;6157802;28;104766;-50
2022/05/01 13:16:06;;;;;;;2.80;2.63;;;;;;;22.39;36.89;95136.56;6139741;28;104900;-50
2022/05/01 13:19:15;;;;;;;2.40;2.30;;;;;;;22.41;37.43;95131.69;6141860;28;103752;-51
2022/05/01 13:22:17;;;;;;;4.00;2.93;;;;;;;22.42;37.48;95125.28;6154959;28;103887;-51
2022/05/01 13:25:19;;;;;;;2.33;2.13;;;;;;;22.39;37.75;95123.22;6149101;28;103984;-50
2022/05/01 13:28:21;;;;;;;3.07;2.50;;;;;;;22.41;37.96;95118.38;6147800;28;104963;-52
2022/05/01 13:31:23;;;;;;;4.37;2.50;;;;;;;22.42;38.33;95118.06;6154367;28;104235;-51
2022/05/01 13:34:26;;;;;;;2.40;2.20;;;;;;;22.45;38.54;95127.31;6152416;28;104181;-49
2022/05/01 13:37:30;;;;;;;3.13;2.70;;;;;;;22.46;38.42;95123.56;6151599;28;103384;-50
2022/05/01 13:47:15;;;;;;;4.60;2.90;;;;;;;22.48;38.61;95118.69;6153589;28;103645;-50
2022/05/01 13:50:17;;;;;;;2.10;2.00;;;;;;;22.48;39.08;95108.03;6143021;28;103268;-50
2022/05/01 13:53:18;;;;;;;2.40;2.20;;;;;;;22.45;38.97;95100.66;6156761;28;103683;-52
2022/05/01 13:56:20;;;;;;;2.43;2.23;;;;;;;22.49;38.86;95106.94;6149965;28;104471;-50
2022/05/01 13:59:23;;;;;;;2.67;2.30;;;;;;;22.48;39.07;95108.03;6162111;28;104791;-50
2022/05/01 14:02:24;;;;;;;2.93;2.63;;;;;;;22.52;39.31;95102.91;6151131;28;103932;-54
2022/05/01 14:05:26;;;;;;;2.60;2.30;;;;;;;22.52;39.64;95105.56;6156113;28;104743;-50
2022/05/01 14:08:28;;;;;;;1.97;1.87;;;;;;;22.55;39.41;95110.28;6154316;28;103778;-50
2022/05/01 14:11:31;;;;;;;2.47;2.27;;;;;;;22.49;38.96;95098.94;6169288;28;104452;-51
2022/05/01 14:14:39;;;;;;;2.57;2.30;;;;;;;22.47;38.64;95108.34;6144883;28;103637;-51
2022/05/01 14:17:40;;;;;;;2.60;2.40;;;;;;;22.49;38.25;95104.28;6159615;28;103636;-54
2022/05/01 14:20:45;;;;;;;2.27;2.17;;;;;;;22.51;38.27;95099.41;6159512;28;103794;-53
2022/05/01 14:23:47;;;;;;;6.30;2.60;;;;;;;22.53;38.36;95099.94;6144977;28;104809;-53
2022/05/01 14:26:49;;;;;;;2.50;2.30;;;;;;;22.56;38.38;95101.19;6160393;28;104711;-55
2022/05/01 14:29:51;;;;;;;5.83;5.20;;;;;;;22.58;38.36;95094.47;6157997;28;104159;-54
2022/05/01 14:32:59;;;;;;;5.30;4.77;;;;;;;22.64;38.11;95101.25;6158333;28;103690;-55
2022/05/01 14:36:01;;;;;;;4.37;3.13;;;;;;;22.52;35.83;95093.03;6144991;28;104595;-55
2022/05/01 14:39:08;;;;;;;7.03;3.80;;;;;;;22.60;36.57;95092.28;6158051;28;103733;-54
2022/05/01 14:42:15;;;;;;;4.77;4.13;;;;;;;22.64;36.78;95093.25;6150771;28;104593;-54
2022/05/01 14:45:22;;;;;;;5.30;4.90;;;;;;;22.66;37.00;95098.25;6153899;28;105319;-58
2022/05/01 14:48:28;;;;;;;5.67;5.17;;;;;;;22.67;36.67;95092.63;6152238;28;105122;-58
2022/05/01 14:51:33;;;;;;;6.07;5.63;;;;;;;22.68;36.59;95094.22;6158212;28;104819;-60
2022/05/01 14:54:37;;;;;;;6.63;6.13;;;;;;;22.70;36.75;95089.34;6153495;28;104857;-56